Time;durP1;ratioP1;P1;durP2;ratioP2;P2;SDS_P1;SDS_P2;PMS_P1;PMS_P2;Temp;Humidity;BMP_temperature;BMP_pressure;BME280_temperature;BME280_humidity;BME280_pressure;Samples;Min_cycle;Max_cycle;Signal;HPM_P1;HPM_P2
2023/01/28 00:02:00;;;;;;;;;;;;;;;17.98;31.49;95921.19;10436824;28;2415;-50
2023/01/28 00:07:01;;;;;;;;;;;;;;;17.93;31.56;95924.56;10431147;28;2407;-49
2023/01/28 00:12:01;;;;;;;;;;;;;;;17.94;31.46;95922.75;10424554;28;2441;-49
2023/01/28 00:17:03;;;;;;;;;;;;;;;17.92;31.43;95924.81;10418851;28;2579;-50
2023/01/28 00:22:03;;;;;;;;;;;;;;;17.88;31.40;95925.34;10433261;28;2555;-47
2023/01/28 00:27:03;;;;;;;;;;;;;;;17.87;31.33;95925.56;10460148;28;2428;-50
2023/01/28 00:32:04;;;;;;;;;;;;;;;17.84;31.51;95924.28;10460672;28;2493;-52
2023/01/28 00:37:05;;;;;;;;;;;;;;;17.80;31.64;95917.91;10463296;28;2550;-51
2023/01/28 00:42:05;;;;;;;;;;;;;;;17.79;31.76;95926.03;10462229;28;2382;-50
2023/01/28 00:47:05;;;;;;;;;;;;;;;17.78;31.64;95922.63;10461465;28;2521;-52
2023/01/28 00:52:06;;;;;;;;;;;;;;;17.74;31.72;95924.16;10464253;28;2389;-50
2023/01/28 00:57:06;;;;;;;;;;;;;;;17.72;31.93;95922.88;10464256;28;2442;-52
2023/01/28 01:02:13;;;;;;;;;;;;;;;17.71;32.16;95921.28;10467336;28;2469;-50
2023/01/28 01:07:13;;;;;;;;;;;;;;;17.69;32.03;95925.97;10447011;28;2405;-50
2023/01/28 01:12:13;;;;;;;;;;;;;;;17.67;31.98;95930.69;10470841;28;2478;-51
2023/01/28 01:17:13;;;;;;;;;;;;;;;17.65;32.08;95933.56;10466714;28;2436;-47
2023/01/28 01:22:14;;;;;;;;;;;;;;;17.64;31.91;95931.97;10454658;28;2540;-48
2023/01/28 01:27:14;;;;;;;;;;;;;;;17.62;32.04;95930.66;10419605;28;2454;-49
2023/01/28 01:32:15;;;;;;;;;;;;;;;17.60;32.06;95930.88;10423040;28;2470;-48
2023/01/28 01:37:15;;;;;;;;;;;;;;;17.57;32.04;95939.25;10418826;28;2628;-48
2023/01/28 01:42:15;;;;;;;;;;;;;;;17.55;31.94;95938.72;10424875;28;2486;-49
2023/01/28 01:47:16;;;;;;;;;;;;;;;17.54;31.94;95941.56;10416885;28;2640;-49
2023/01/28 01:52:17;;;;;;;;;;;;;;;17.51;31.96;95945.50;10419952;28;2577;-48
2023/01/28 01:57:20;;;;;;;;;;;;;;;17.51;32.04;95949.94;10432881;28;2519;-48
2023/01/28 02:02:21;;;;;;;;;;;;;;;17.49;31.94;95950.19;10419004;28;2762;-47
2023/01/28 02:07:21;;;;;;;;;;;;;;;17.47;31.98;95946.22;10425310;28;2467;-50
2023/01/28 02:12:22;;;;;;;;;;;;;;;17.46;32.03;95960.34;10420507;28;2387;-49
2023/01/28 02:17:23;;;;;;;;;;;;;;;17.43;31.94;95961.66;10429728;28;2441;-47
2023/01/28 02:22:30;;;;;;;;;;;;;;;17.41;32.13;95961.09;10429426;28;2541;-46
2023/01/28 02:27:31;;;;;;;;;;;;;;;17.40;32.08;95958.72;10429403;28;2459;-47
2023/01/28 02:32:35;;;;;;;;;;;;;;;17.40;31.96;95961.34;10430849;28;2565;-48
2023/01/28 02:37:37;;;;;;;;;;;;;;;17.39;32.06;95957.94;10432101;28;2448;-51
2023/01/28 02:42:38;;;;;;;;;;;;;;;17.38;32.14;95969.44;10444689;28;2473;-48
2023/01/28 02:47:56;;;;;;;;;;;;;;;17.37;32.18;95965.22;10437567;28;2424;-50
2023/01/28 02:58:36;;;;;;;;;;;;;;;17.39;32.11;95963.19;10431895;28;2409;-51
2023/01/28 03:03:45;;;;;;;;;;;;;;;17.41;32.02;95973.41;10436571;28;2447;-47
2023/01/28 03:40:49;;;;;;;;;;;;;;;17.52;31.83;95990.81;10478405;28;2406;-47
2023/01/28 03:45:50;;;;;;;;;;;;;;;17.51;31.87;95982.19;10469377;28;2471;-49
2023/01/28 03:50:50;;;;;;;;;;;;;;;17.52;31.85;95986.38;10494795;28;2823;-49
2023/01/28 03:55:51;;;;;;;;;;;;;;;17.55;31.73;95987.72;10485525;28;2486;-51
2023/01/28 04:00:52;;;;;;;;;;;;;;;17.53;31.87;95990.59;10479335;28;2391;-49
2023/01/28 04:06:02;;;;;;;;;;;;;;;17.52;31.71;95986.38;10475409;28;2485;-49
2023/01/28 04:11:14;;;;;;;;;;;;;;;17.55;31.71;95995.59;10462609;28;2479;-48
2023/01/28 04:16:15;;;;;;;;;;;;;;;17.56;31.76;96000.56;10467320;28;2427;-53
2023/01/28 04:21:15;;;;;;;;;;;;;;;17.56;31.76;96005.81;10466659;28;2561;-52
2023/01/28 04:26:16;;;;;;;;;;;;;;;17.56;31.73;96008.44;10463281;28;2551;-50
2023/01/28 04:31:16;;;;;;;;;;;;;;;17.56;31.81;96008.44;10476903;28;2482;-52
2023/01/28 04:36:16;;;;;;;;;;;;;;;17.57;31.82;96017.91;10465303;28;2597;-51
2023/01/28 04:41:16;;;;;;;;;;;;;;;17.56;31.72;96016.28;10466261;28;2484;-50
2023/01/28 04:46:17;;;;;;;;;;;;;;;17.57;31.84;96024.97;10472454;28;2805;-50
2023/01/28 04:51:17;;;;;;;;;;;;;;;17.58;31.82;96026.53;10474737;28;2471;-51
2023/01/28 04:56:17;;;;;;;;;;;;;;;17.58;31.79;96024.69;10472668;28;2454;-49
2023/01/28 05:01:17;;;;;;;;;;;;;;;17.59;31.69;96028.91;10453250;28;2437;-53
2023/01/28 05:06:18;;;;;;;;;;;;;;;17.58;31.73;96029.16;10476467;28;2427;-52
2023/01/28 05:11:18;;;;;;;;;;;;;;;17.61;31.74;96042.56;10462370;28;2656;-51
2023/01/28 05:16:18;;;;;;;;;;;;;;;17.67;31.58;96038.16;10469830;28;2476;-52
2023/01/28 05:21:18;;;;;;;;;;;;;;;17.71;31.61;96039.25;10476202;28;2414;-53
2023/01/28 05:26:19;;;;;;;;;;;;;;;17.75;31.70;96040.34;10434272;28;2515;-50
2023/01/28 05:31:19;;;;;;;;;;;;;;;17.82;31.61;96044.34;10432856;28;2447;-49
2023/01/28 05:36:19;;;;;;;;;;;;;;;17.89;31.42;96054.63;10430271;28;2383;-49
2023/01/28 05:41:19;;;;;;;;;;;;;;;17.95;31.46;96060.72;10423201;28;2484;-50
2023/01/28 05:46:20;;;;;;;;;;;;;;;18.00;31.31;96061.53;10424599;28;2484;-50
2023/01/28 05:51:20;;;;;;;;;;;;;;;18.06;31.23;96065.78;10427872;28;2772;-50
2023/01/28 05:56:20;;;;;;;;;;;;;;;18.10;31.11;96071.31;10435742;28;2513;-47
2023/01/28 06:01:21;;;;;;;;;;;;;;;18.14;31.04;96078.44;10430729;28;2519;-50
2023/01/28 06:06:21;;;;;;;;;;;;;;;18.16;31.04;96073.75;10430784;28;2580;-51
2023/01/28 06:11:21;;;;;;;;;;;;;;;18.20;30.91;96076.66;10426005;28;2487;-52
2023/01/28 06:16:21;;;;;;;;;;;;;;;18.23;30.86;96079.59;10440783;28;2447;-51
2023/01/28 06:21:22;;;;;;;;;;;;;;;18.26;30.85;96079.06;10434768;28;2386;-49
2023/01/28 06:26:22;;;;;;;;;;;;;;;18.30;30.71;96082.78;10437598;28;2531;-52
2023/01/28 06:31:22;;;;;;;;;;;;;;;18.34;30.62;96088.34;10429651;28;2487;-50
2023/01/28 06:36:22;;;;;;;;;;;;;;;18.36;30.54;96099.38;10427169;28;2550;-48
2023/01/28 06:41:23;;;;;;;;;;;;;;;18.37;30.60;96099.13;10443999;28;2568;-48
2023/01/28 06:46:23;;;;;;;;;;;;;;;18.42;30.43;96111.50;10436421;28;2589;-48
2023/01/28 06:51:24;;;;;;;;;;;;;;;18.44;30.45;96109.44;10433521;28;2404;-53
2023/01/28 06:56:24;;;;;;;;;;;;;;;18.46;30.40;96110.78;10441895;28;2483;-50
2023/01/28 07:01:24;;;;;;;;;;;;;;;18.49;30.26;96107.63;10433977;28;2523;-50
2023/01/28 07:06:24;;;;;;;;;;;;;;;18.50;30.29;96118.94;10439071;28;2463;-49
2023/01/28 07:11:25;;;;;;;;;;;;;;;18.54;30.23;96126.06;10432253;28;2523;-49
2023/01/28 07:16:25;;;;;;;;;;;;;;;18.56;30.33;96123.19;10427484;28;2463;-50
2023/01/28 07:21:25;;;;;;;;;;;;;;;18.58;30.18;96126.34;10429008;28;2511;-52
2023/01/28 07:26:25;;;;;;;;;;;;;;;18.58;30.22;96137.63;10418904;28;2487;-49
2023/01/28 07:31:26;;;;;;;;;;;;;;;18.61;30.25;96141.56;10433058;28;2443;-52
2023/01/28 07:36:26;;;;;;;;;;;;;;;18.62;30.08;96140.53;10423193;28;2437;-54
2023/01/28 07:41:27;;;;;;;;;;;;;;;18.65;30.14;96147.91;10426981;28;2541;-47
2023/01/28 07:46:27;;;;;;;;;;;;;;;18.67;30.11;96157.13;10422997;28;2421;-46
2023/01/28 07:51:27;;;;;;;;;;;;;;;18.69;29.98;96160.28;10427394;28;2543;-51
2023/01/28 07:56:30;;;;;;;;;;;;;;;18.71;30.02;96159.25;10421478;28;2434;-47
2023/01/28 08:01:30;;;;;;;;;;;;;;;18.74;29.93;96170.03;10429134;28;2458;-49
2023/01/28 08:06:30;;;;;;;;;;;;;;;18.75;30.09;96174.28;10421688;28;2477;-50
2023/01/28 08:11:31;;;;;;;;;;;;;;;18.76;30.00;96177.66;10422007;28;2466;-50
2023/01/28 08:16:31;;;;;;;;;;;;;;;18.76;30.15;96181.09;10421831;28;2389;-47
2023/01/28 08:21:32;;;;;;;;;;;;;;;18.76;29.98;96188.16;10426854;28;2529;-49
2023/01/28 08:26:32;;;;;;;;;;;;;;;18.73;30.09;96192.09;10428177;28;2532;-51
2023/01/28 08:31:32;;;;;;;;;;;;;;;18.67;30.08;96191.25;10415337;28;2414;-49
2023/01/28 08:36:32;;;;;;;;;;;;;;;18.66;30.25;96194.94;10419229;28;2472;-51
2023/01/28 08:41:33;;;;;;;;;;;;;;;18.64;30.45;96193.59;10427591;28;2547;-51
2023/01/28 08:46:33;;;;;;;;;;;;;;;18.61;30.50;96204.59;10423816;28;2494;-54
2023/01/28 08:51:33;;;;;;;;;;;;;;;18.57;30.63;96206.94;10419208;28;2455;-51
2023/01/28 08:56:33;;;;;;;;;;;;;;;18.52;30.55;96206.09;10422831;28;2618;-51
2023/01/28 09:01:34;;;;;;;;;;;;;;;18.48;30.54;96211.06;10429514;28;2576;-52
2023/01/28 09:06:34;;;;;;;;;;;;;;;18.44;30.66;96209.94;10419676;28;2499;-50
2023/01/28 09:11:34;;;;;;;;;;;;;;;18.42;30.60;96219.09;10417043;28;2471;-49
2023/01/28 09:16:34;;;;;;;;;;;;;;;18.37;30.68;96217.22;10428370;28;2614;-50
2023/01/28 09:21:37;;;;;;;;;;;;;;;18.33;30.78;96217.94;10433583;28;2513;-49
2023/01/28 09:26:37;;;;;;;;;;;;;;;18.28;30.79;96220.53;10431221;28;2558;-50
2023/01/28 09:31:37;;;;;;;;;;;;;;;18.24;30.78;96225.47;10437656;28;2591;-52
2023/01/28 09:36:38;;;;;;;;;;;;;;;18.21;30.87;96218.13;10408898;28;2501;-54
2023/01/28 09:41:48;;;;;;;;;;;;;;;18.17;31.01;96224.09;10439718;28;2442;-54
2023/01/28 09:46:48;;;;;;;;;;;;;;;18.14;30.85;96219.31;10435440;28;2445;-50
2023/01/28 09:51:51;;;;;;;;;;;;;;;18.10;30.97;96218.22;10427818;28;2411;-53
2023/01/28 09:56:52;;;;;;;;;;;;;;;18.06;31.17;96225.00;10429218;28;2436;-51
2023/01/28 10:02:01;;;;;;;;;;;;;;;18.01;31.70;96217.88;10411859;28;2564;-53
2023/01/28 10:07:24;;;;;;;;;;;;;;;18.02;32.48;96216.84;10405759;28;2489;-46
2023/01/28 10:12:25;;;;;;;;;;;;;;;18.07;33.07;96213.50;10427142;28;2545;-54
2023/01/28 10:17:27;;;;;;;;;;;;;;;18.14;33.21;96206.22;10427780;28;2463;-51
2023/01/28 10:22:38;;;;;;;;;;;;;;;18.27;33.28;96213.69;10419278;28;2568;-52
2023/01/28 10:27:38;;;;;;;;;;;;;;;18.38;34.98;96210.16;10427550;28;2425;-52
2023/01/28 10:32:41;;;;;;;;;;;;;;;18.45;35.39;96205.50;10408630;28;2348;-52
2023/01/28 10:37:41;;;;;;;;;;;;;;;18.49;35.17;96201.34;10425018;28;2496;-51
2023/01/28 10:42:42;;;;;;;;;;;;;;;18.59;34.60;96204.03;10429831;28;2571;-50
2023/01/28 10:47:50;;;;;;;;;;;;;;;18.69;33.99;96191.78;10434730;28;2539;-50
2023/01/28 10:52:59;;;;;;;;;;;;;;;18.82;33.64;96195.03;10410379;28;2732;-48
2023/01/28 10:58:01;;;;;;;;;;;;;;;18.89;33.37;96200.88;10421365;28;2440;-48
2023/01/28 11:03:01;;;;;;;;;;;;;;;18.93;32.74;96202.75;10435752;28;2467;-52
2023/01/28 11:08:05;;;;;;;;;;;;;;;18.97;32.51;96198.59;10436758;28;2467;-52
2023/01/28 11:13:11;;;;;;;;;;;;;;;19.02;32.28;96201.22;10414963;28;2500;-51
2023/01/28 11:18:25;;;;;;;;;;;;;;;19.00;32.20;96200.69;10420634;28;2511;-52
2023/01/28 11:23:26;;;;;;;;;;;;;;;19.00;32.07;96202.56;10443773;28;2523;-52
2023/01/28 11:28:27;;;;;;;;;;;;;;;19.02;32.28;96206.47;10438513;28;2455;-49
2023/01/28 11:33:31;;;;;;;;;;;;;;;19.19;32.09;96201.06;10437183;28;2427;-51
2023/01/28 11:38:33;;;;;;;;;;;;;;;19.33;32.04;96207.50;10418629;28;2538;-50
2023/01/28 11:43:33;;;;;;;;;;;;;;;19.45;31.74;96200.22;10420261;28;2166;-50
2023/01/28 11:48:39;;;;;;;;;;;;;;;19.53;30.88;96207.63;10434775;28;2189;-51
2023/01/28 11:53:50;;;;;;;;;;;;;;;19.41;30.32;96199.94;10434914;28;2301;-52
2023/01/28 11:59:09;;;;;;;;;;;;;;;19.48;30.77;96197.88;10415691;28;2284;-50
2023/01/28 12:04:09;;;;;;;;;;;;;;;19.56;30.68;96195.81;10429235;28;2162;-49
2023/01/28 12:09:12;;;;;;;;;;;;;;;19.61;29.77;96194.00;10426198;28;2350;-49
2023/01/28 12:14:19;;;;;;;;;;;;;;;19.62;29.72;96189.53;10435890;28;2333;-49
2023/01/28 12:19:34;;;;;;;;;;;;;;;19.63;29.69;96193.72;10437869;28;2499;-52
2023/01/28 12:24:39;;;;;;;;;;;;;;;19.63;29.27;96196.34;10450942;28;2175;-50
2023/01/28 12:29:40;;;;;;;;;;;;;;;19.72;30.26;96189.56;10476301;28;2181;-50
2023/01/28 12:34:53;;;;;;;;;;;;;;;19.76;30.43;96193.28;10479241;28;2255;-52
2023/01/28 12:40:05;;;;;;;;;;;;;;;19.80;30.90;96197.75;10477670;28;2195;-50
2023/01/28 12:45:39;;;;;;;;;;;;;;;19.85;31.58;96200.41;10473594;28;2391;-50
2023/01/28 12:50:47;;;;;;;;;;;;;;;19.88;31.41;96207.00;10462962;28;2175;-49
2023/01/28 12:55:48;;;;;;;;;;;;;;;19.96;31.10;96203.84;10474840;28;2262;-53
2023/01/28 13:00:50;;;;;;;;;;;;;;;20.03;31.27;96199.16;10472803;28;2150;-50
2023/01/28 13:06:00;;;;;;;;;;;;;;;19.94;29.82;96198.84;10474199;28;2196;-52
2023/01/28 13:11:01;;;;;;;;;;;;;;;19.94;28.92;96195.44;10460872;28;2177;-50
2023/01/28 13:16:02;;;;;;;;;;;;;;;19.89;29.47;96198.03;10473364;28;2346;-48
2023/01/28 13:21:04;;;;;;;;;;;;;;;19.87;29.55;96202.75;10461337;28;2156;-52
2023/01/28 13:26:17;;;;;;;;;;;;;;;19.86;29.50;96209.09;10439529;28;2128;-52
2023/01/28 13:31:18;;;;;;;;;;;;;;;19.85;29.69;96205.66;10429345;28;2315;-54
2023/01/28 13:36:23;;;;;;;;;;;;;;;19.85;29.62;96210.91;10442751;28;2328;-51
2023/01/28 13:41:23;;;;;;;;;;;;;;;19.85;29.46;96215.38;10411720;28;2198;-51
2023/01/28 13:46:27;;;;;;;;;;;;;;;19.83;29.43;96220.91;10433906;28;2253;-52
2023/01/28 13:51:29;;;;;;;;;;;;;;;19.83;29.40;96228.00;10432174;28;2274;-52
2023/01/28 13:56:38;;;;;;;;;;;;;;;19.82;29.66;96226.44;10431902;28;2234;-50
2023/01/28 14:01:44;;;;;;;;;;;;;;;19.76;30.90;96225.63;10417642;28;2264;-48
2023/01/28 14:07:06;;;;;;;;;;;;;;;19.71;30.73;96241.38;10429187;28;2194;-47
2023/01/28 14:12:06;;;;;;;;;;;;;;;19.70;30.97;96250.28;10422659;28;2087;-48
2023/01/28 14:17:19;;;;;;;;;;;;;;;19.73;31.00;96244.53;10435887;28;2205;-49
2023/01/28 14:22:19;;;;;;;;;;;;;;;19.75;31.16;96246.91;10441703;28;2288;-48
2023/01/28 14:27:27;;;;;;;;;;;;;;;19.78;31.03;96252.47;10436452;28;2249;-49
2023/01/28 14:32:28;;;;;;;;;;;;;;;19.94;31.89;96255.94;10433966;28;2170;-52
2023/01/28 14:37:28;;;;;;;;;;;;;;;20.25;31.12;96257.69;10423824;28;2266;-54
2023/01/28 14:42:29;;;;;;;;;;;;;;;20.42;30.94;96263.53;10407698;28;2272;-51
2023/01/28 14:47:32;;;;;;;;;;;;;;;20.60;30.29;96262.22;10424480;28;2210;-52
2023/01/28 14:52:44;;;;;;;;;;;;;;;20.70;30.62;96260.41;10419712;28;2270;-48
2023/01/28 14:57:46;;;;;;;;;;;;;;;20.73;30.38;96270.41;10407885;28;2131;-50
2023/01/28 15:02:46;;;;;;;;;;;;;;;20.85;30.78;96268.34;10413915;28;2220;-48
2023/01/28 15:07:47;;;;;;;;;;;;;;;20.93;31.02;96267.81;10427302;28;2332;-50
2023/01/28 15:12:49;;;;;;;;;;;;;;;21.02;30.85;96276.78;10435618;28;2277;-52
2023/01/28 15:17:49;;;;;;;;;;;;;;;21.21;30.50;96282.31;10425471;28;2208;-52
2023/01/28 15:22:50;;;;;;;;;;;;;;;21.38;28.87;96287.31;10448236;28;2284;-49
2023/01/28 15:27:51;;;;;;;;;;;;;;;21.51;28.08;96278.88;10416600;28;2343;-50
2023/01/28 15:32:58;;;;;;;;;;;;;;;21.62;27.25;96283.84;10409790;28;2131;-50
2023/01/28 15:37:58;;;;;;;;;;;;;;;21.77;27.32;96285.66;10434440;28;2234;-48
2023/01/28 15:42:59;;;;;;;;;;;;;;;21.84;27.39;96299.41;10412186;28;2195;-51
2023/01/28 15:48:04;;;;;;;;;;;;;;;21.77;28.30;96314.69;10423639;28;2228;-50
2023/01/28 15:53:06;;;;;;;;;;;;;;;21.90;30.03;96310.75;10405040;28;2132;-52
2023/01/28 15:58:16;;;;;;;;;;;;;;;22.21;30.60;96323.59;10425107;28;2203;-53
2023/01/28 16:03:17;;;;;;;;;;;;;;;22.46;30.48;96312.88;10421222;28;2267;-52
2023/01/28 16:08:25;;;;;;;;;;;;;;;22.60;30.17;96321.06;10418368;28;2343;-52
2023/01/28 16:13:26;;;;;;;;;;;;;;;22.73;30.07;96324.97;10411604;28;2212;-52
2023/01/28 16:18:30;;;;;;;;;;;;;;;22.92;29.99;96326.66;10414778;28;2237;-55
2023/01/28 16:23:30;;;;;;;;;;;;;;;22.95;29.62;96323.50;10443690;28;2550;-52
2023/01/28 16:28:31;;;;;;;;;;;;;;;23.00;29.78;96349.88;10474608;28;2136;-50
2023/01/28 16:33:31;;;;;;;;;;;;;;;23.12;29.91;96350.31;10472329;28;2170;-49
2023/01/28 16:38:32;;;;;;;;;;;;;;;22.85;29.39;96349.19;10479498;28;2152;-51
2023/01/28 16:43:32;;;;;;;;;;;;;;;23.00;30.03;96346.47;10476451;28;2617;-52
2023/01/28 16:48:32;;;;;;;;;;;;;;;23.05;29.68;96359.66;10477605;28;2245;-53
2023/01/28 16:53:32;;;;;;;;;;;;;;;23.09;29.77;96366.75;10476134;28;2332;-47
2023/01/28 16:58:33;;;;;;;;;;;;;;;23.12;30.29;96363.56;10474664;28;2132;-48
2023/01/28 17:03:33;;;;;;;;;;;;;;;23.22;30.18;96370.66;10482047;28;2188;-51
2023/01/28 17:08:33;;;;;;;;;;;;;;;23.21;30.03;96371.69;10484887;28;2139;-50
2023/01/28 17:13:34;;;;;;;;;;;;;;;23.27;30.28;96368.75;10485773;28;2150;-51
2023/01/28 17:18:34;;;;;;;;;;;;;;;23.25;30.11;96373.53;10481549;28;2158;-49
2023/01/28 17:23:34;;;;;;;;;;;;;;;23.28;30.07;96378.28;10446034;28;2587;-50
2023/01/28 17:28:36;;;;;;;;;;;;;;;23.31;30.23;96383.00;10437239;28;2211;-51
2023/01/28 17:33:36;;;;;;;;;;;;;;;23.32;29.57;96384.63;10439371;28;2181;-51
2023/01/28 17:38:36;;;;;;;;;;;;;;;23.31;29.76;96384.84;10433683;28;2148;-49
2023/01/28 17:43:36;;;;;;;;;;;;;;;23.31;29.37;96390.13;10435887;28;2163;-50
2023/01/28 17:48:37;;;;;;;;;;;;;;;23.29;29.08;96393.06;10432111;28;2168;-50
2023/01/28 17:53:37;;;;;;;;;;;;;;;23.26;29.74;96390.19;10428683;28;2191;-52
2023/01/28 17:58:37;;;;;;;;;;;;;;;23.22;29.42;96397.09;10431638;28;2140;-48
2023/01/28 18:03:38;;;;;;;;;;;;;;;23.22;29.47;96391.81;10419554;28;2422;-50
2023/01/28 18:08:38;;;;;;;;;;;;;;;23.22;29.19;96399.75;10422229;28;2160;-50
2023/01/28 18:13:38;;;;;;;;;;;;;;;23.18;29.54;96396.88;10438868;28;2221;-52
2023/01/28 18:18:38;;;;;;;;;;;;;;;23.17;29.49;96395.28;10421318;28;2213;-48
2023/01/28 18:23:39;;;;;;;;;;;;;;;23.14;29.41;96414.31;10460606;28;2485;-53
2023/01/28 18:28:39;;;;;;;;;;;;;;;23.13;29.24;96419.88;10471716;28;2189;-54
2023/01/28 18:33:39;;;;;;;;;;;;;;;23.12;29.11;96419.09;10469703;28;2340;-51
2023/01/28 18:38:40;;;;;;;;;;;;;;;23.10;29.11;96415.16;10468251;28;2215;-53
2023/01/28 18:43:40;;;;;;;;;;;;;;;23.11;29.08;96411.44;10463410;28;2232;-51
2023/01/28 18:48:41;;;;;;;;;;;;;;;23.09;28.75;96421.50;10479994;28;2140;-54
2023/01/28 18:53:42;;;;;;;;;;;;;;;23.08;28.55;96418.06;10470039;28;2164;-52
2023/01/28 18:58:42;;;;;;;;;;;;;;;23.07;28.66;96420.97;10458631;28;2164;-52
2023/01/28 19:03:42;;;;;;;;;;;;;;;23.03;28.37;96414.66;10484900;28;2494;-50
2023/01/28 19:08:43;;;;;;;;;;;;;;;23.02;28.34;96428.97;10467395;28;2153;-55
2023/01/28 19:13:43;;;;;;;;;;;;;;;23.01;28.41;96427.34;10466725;28;2171;-53
2023/01/28 19:18:43;;;;;;;;;;;;;;;22.93;28.06;96417.34;10477855;28;2185;-52
2023/01/28 19:23:43;;;;;;;;;;;;;;;22.76;27.55;96411.63;10478685;28;2528;-53
2023/01/28 19:28:44;;;;;;;;;;;;;;;22.67;27.43;96415.91;10475173;28;2155;-53
2023/01/28 19:33:44;;;;;;;;;;;;;;;22.60;27.11;96413.53;10469933;28;2103;-50
2023/01/28 19:38:44;;;;;;;;;;;;;;;22.54;27.44;96410.09;10483965;28;2271;-52
2023/01/28 19:43:45;;;;;;;;;;;;;;;22.47;27.17;96419.34;10469389;28;2191;-57
2023/01/28 19:48:45;;;;;;;;;;;;;;;22.41;26.40;96415.94;10469381;28;2116;-52
2023/01/28 19:53:47;;;;;;;;;;;;;;;22.35;26.00;96419.66;10479644;28;2174;-52
2023/01/28 19:58:47;;;;;;;;;;;;;;;22.30;25.95;96422.31;10473037;28;2208;-50
2023/01/28 20:03:53;;;;;;;;;;;;;;;22.25;25.82;96422.34;10460261;28;2494;-51
2023/01/28 20:08:56;;;;;;;;;;;;;;;22.23;25.98;96418.38;10468390;28;2163;-53
2023/01/28 20:13:58;;;;;;;;;;;;;;;22.21;25.91;96413.38;10465943;28;2248;-53
2023/01/28 20:18:59;;;;;;;;;;;;;;;21.95;26.22;96418.97;10471829;28;2240;-56
2023/01/28 20:24:00;;;;;;;;;;;;;;;22.27;27.70;96420.22;10434124;28;2158;-52
2023/01/28 20:29:04;;;;;;;;;;;;;;;22.40;28.19;96424.91;10428145;28;2134;-52
2023/01/28 20:34:04;;;;;;;;;;;;;;;22.45;27.44;96430.19;10423390;28;2137;-50
2023/01/28 20:39:04;;;;;;;;;;;;;;;22.52;27.45;96440.50;10424711;28;2199;-51
2023/01/28 20:44:05;;;;;;;;;;;;;;;22.57;27.70;96438.63;10426642;28;2154;-50
2023/01/28 20:49:05;;;;;;;;;;;;;;;22.59;27.36;96436.53;10421036;28;2174;-54
2023/01/28 20:54:05;;;;;;;;;;;;;;;22.67;27.74;96439.69;10419982;28;2197;-55
2023/01/28 20:59:06;;;;;;;;;;;;;;;22.61;27.56;96442.34;10422115;28;2151;-50
2023/01/28 21:04:06;;;;;;;;;;;;;;;22.58;27.44;96452.66;10425515;28;2124;-54
2023/01/28 21:09:07;;;;;;;;;;;;;;;22.48;27.13;96453.44;10423128;28;2199;-54
2023/01/28 21:14:07;;;;;;;;;;;;;;;22.50;28.41;96459.22;10406670;28;2262;-55
2023/01/28 21:19:07;;;;;;;;;;;;;;;22.52;28.45;96457.13;10427818;28;2347;-56
2023/01/28 21:24:08;;;;;;;;;;;;;;;22.34;27.29;96454.28;10465679;28;2336;-53
2023/01/28 21:29:08;;;;;;;;;;;;;;;22.14;27.63;96457.72;10466591;28;2238;-53
2023/01/28 21:34:08;;;;;;;;;;;;;;;22.22;28.75;96462.47;10468118;28;2255;-57
2023/01/28 21:39:09;;;;;;;;;;;;;;;22.21;28.91;96466.19;10469753;28;2323;-53
2023/01/28 21:44:09;;;;;;;;;;;;;;;22.19;29.05;96473.59;10463350;28;2458;-53
2023/01/28 21:49:10;;;;;;;;;;;;;;;22.14;28.84;96476.22;10468788;28;2176;-59
2023/01/28 21:54:17;;;;;;;;;;;;;;;22.18;28.86;96481.75;10466584;28;2175;-50
2023/01/28 21:59:27;;;;;;;;;;;;;;;22.14;28.96;96478.06;10466736;28;2187;-54
2023/01/28 22:04:31;;;;;;;;;;;;;;;22.14;29.06;96476.22;10457338;28;2127;-50
2023/01/28 22:09:32;;;;;;;;;;;;;;;22.08;29.17;96472.00;10470022;28;2214;-50
2023/01/28 22:14:36;;;;;;;;;;;;;;;22.02;29.15;96472.25;10470229;28;2071;-49
2023/01/28 22:19:36;;;;;;;;;;;;;;;21.98;28.89;96473.84;10465186;28;2207;-51
2023/01/28 22:24:36;;;;;;;;;;;;;;;21.94;28.90;96488.63;10431195;28;2227;-52
2023/01/28 22:29:37;;;;;;;;;;;;;;;21.93;28.85;96490.47;10428556;28;2181;-61
2023/01/28 22:34:37;;;;;;;;;;;;;;;21.80;28.25;96483.06;10421328;28;2163;-49
2023/01/28 22:39:37;;;;;;;;;;;;;;;21.63;28.54;96480.69;10421195;28;2181;-53
2023/01/28 22:44:37;;;;;;;;;;;;;;;21.54;28.19;96465.63;10430573;28;2132;-49
2023/01/28 22:49:38;;;;;;;;;;;;;;;21.43;28.50;96464.81;10422321;28;2112;-50
2023/01/28 22:54:38;;;;;;;;;;;;;;;21.35;28.29;96456.63;10418481;28;2120;-51
2023/01/28 22:59:38;;;;;;;;;;;;;;;21.25;28.14;96467.13;10439333;28;2268;-51
2023/01/28 23:04:39;;;;;;;;;;;;;;;21.16;28.20;96466.88;10431630;28;2268;-48
2023/01/28 23:09:39;;;;;;;;;;;;;;;21.09;28.23;96468.97;10430531;28;2155;-50
2023/01/28 23:25:17;;;;;;;;;;;;;;;20.90;27.97;96465.97;10418817;28;2124;-49
2023/01/28 23:30:23;;;;;;;;;;;;;;;20.90;27.84;96468.59;10422302;28;2205;-48
2023/01/28 23:35:26;;;;;;;;;;;;;;;20.89;27.69;96467.03;10427817;28;2192;-48
2023/01/28 23:40:27;;;;;;;;;;;;;;;20.85;27.58;96468.59;10419505;28;2181;-52
2023/01/28 23:45:27;;;;;;;;;;;;;;;20.80;27.73;96459.84;10422163;28;2128;-51
2023/01/28 23:50:27;;;;;;;;;;;;;;;20.76;27.82;96462.22;10421213;28;2247;-49
2023/01/28 23:55:27;;;;;;;;;;;;;;;20.73;27.84;96460.09;10433812;28;2226;-49
